createdAt,value
2022-09-18T00:00:17.964Z,100107.78
2022-09-18T00:05:19.593Z,100114.75
2022-09-18T00:10:21.882Z,100116.66
2022-09-18T00:15:25.419Z,100120.22
2022-09-18T00:20:27.489Z,100114.03
2022-09-18T00:25:30.057Z,100124.69
2022-09-18T00:30:33.312Z,100128.47
2022-09-18T00:35:35.198Z,100124.28
2022-09-18T00:40:37.051Z,100127.13
2022-09-18T00:45:40.652Z,100130.50
2022-09-18T00:50:42.669Z,100129.78
2022-09-18T00:55:44.686Z,100140.50
2022-09-18T01:00:48.154Z,100135.13
2022-09-18T01:06:06.049Z,100144.94
2022-09-18T01:11:21.442Z,100142.19
2022-09-18T01:16:33.010Z,100139.53
2022-09-18T01:21:41.964Z,100139.81
2022-09-18T01:26:55.230Z,100141.72
2022-09-18T01:32:04.927Z,100141.84
2022-09-18T01:37:11.869Z,100144.47
2022-09-18T01:42:17.148Z,100145.47
2022-09-18T01:47:25.569Z,100161.28
2022-09-18T01:52:31.680Z,100165.69
2022-09-18T01:57:37.745Z,100168.28
2022-09-18T02:02:45.481Z,100171.19
2022-09-18T02:07:54.926Z,100170.09
2022-09-18T02:12:57.788Z,100182.41
2022-09-18T02:18:05.888Z,100190.41
2022-09-18T02:23:09.496Z,100184.44
2022-09-18T02:28:15.973Z,100193.97
2022-09-18T02:33:28.056Z,100197.59
2022-09-18T02:38:35.525Z,100196.59
2022-09-18T02:43:48.635Z,100188.59
2022-09-18T02:49:02.833Z,100193.84
2022-09-18T02:54:09.293Z,100207.16
2022-09-18T02:59:16.963Z,100200.97
2022-09-18T03:04:23.320Z,100209.72
2022-09-18T03:09:25.639Z,100214.25
2022-09-18T03:14:27.904Z,100209.97
2022-09-18T03:19:30.821Z,100217.91
2022-09-18T03:24:32.878Z,100214.47
2022-09-18T03:29:34.923Z,100225.94
2022-09-18T03:34:38.310Z,100224.25
2022-09-18T03:39:39.977Z,100228.00
2022-09-18T03:44:42.526Z,100238.75
2022-09-18T03:49:47.315Z,100241.41
2022-09-18T03:54:50.542Z,100245.88
2022-09-18T03:59:52.971Z,100242.53
2022-09-18T04:04:56.423Z,100254.81
2022-09-18T04:09:58.131Z,100260.25
2022-09-18T04:15:00.047Z,100247.06
2022-09-18T04:20:05.509Z,100259.22
2022-09-18T04:25:08.142Z,100256.69
2022-09-18T04:30:10.745Z,100264.88
2022-09-18T04:35:14.113Z,100256.19
2022-09-18T04:40:16.188Z,100277.59
2022-09-18T04:45:18.493Z,100273.28
2022-09-18T04:50:21.537Z,100282.22
2022-09-18T04:55:23.469Z,100278.84
2022-09-18T05:00:26.011Z,100278.72
2022-09-18T05:05:29.310Z,100290.16
2022-09-18T05:10:31.355Z,100296.31
2022-09-18T05:15:33.202Z,100302.59
2022-09-18T05:20:36.135Z,100300.78
2022-09-18T05:25:38.010Z,100311.41
2022-09-18T05:30:39.623Z,100310.44
2022-09-18T05:35:43.519Z,100311.38
2022-09-18T05:40:45.309Z,100326.47
2022-09-18T05:45:47.027Z,100311.59
2022-09-18T05:50:50.008Z,100329.44
2022-09-18T05:55:53.145Z,100321.56
2022-09-18T06:00:57.604Z,100320.66
2022-09-18T06:06:00.861Z,100324.00
2022-09-18T06:11:06.146Z,100323.06
2022-09-18T06:16:08.690Z,100328.16
2022-09-18T06:21:12.080Z,100335.06
2022-09-18T06:26:15.108Z,100338.44
2022-09-18T06:31:17.159Z,100347.22
2022-09-18T06:36:20.481Z,100346.16
2022-09-18T06:41:23.898Z,100347.97
2022-09-18T06:46:26.091Z,100346.97
2022-09-18T06:51:29.517Z,100351.25
2022-09-18T06:56:31.367Z,100351.88
2022-09-18T07:01:33.915Z,100354.97
2022-09-18T07:06:37.049Z,100357.44
2022-09-18T07:11:39.205Z,100359.06
2022-09-18T07:16:41.516Z,100368.22
2022-09-18T07:21:44.818Z,100370.47
2022-09-18T07:26:46.807Z,100364.59
2022-09-18T07:31:48.674Z,100373.41
2022-09-18T07:36:52.100Z,100374.97
2022-09-18T07:41:54.100Z,100383.72
2022-09-18T07:46:55.798Z,100384.69
2022-09-18T07:51:59.182Z,100372.38
2022-09-18T07:57:01.290Z,100365.41
2022-09-18T08:02:04.925Z,100367.03
2022-09-18T08:07:08.625Z,100368.56
2022-09-18T08:12:10.277Z,100371.25
2022-09-18T08:17:12.148Z,100367.00
2022-09-18T08:22:15.534Z,100361.13
2022-09-18T08:27:17.403Z,100355.78
2022-09-18T08:32:19.424Z,100375.34
2022-09-18T08:37:22.400Z,100372.09
2022-09-18T08:42:31.778Z,100365.81
2022-09-18T08:47:39.349Z,100367.34
2022-09-18T08:52:46.708Z,100373.06
2022-09-18T08:57:52.801Z,100364.78
2022-09-18T09:03:01.296Z,100365.19
2022-09-18T09:08:34.386Z,100365.81
2022-09-18T09:14:07.921Z,100369.78
2022-09-18T09:19:25.977Z,100366.13
2022-09-18T09:24:32.609Z,100360.91
2022-09-18T09:29:37.299Z,100346.25
2022-09-18T09:34:44.194Z,100358.09
2022-09-18T09:39:54.389Z,100346.94
2022-09-18T09:45:03.990Z,100351.41
2022-09-18T09:50:19.387Z,100344.06
2022-09-18T09:55:28.350Z,100347.09
2022-09-18T10:00:35.393Z,100337.63
2022-09-18T10:05:42.469Z,100343.38
2022-09-18T10:10:52.204Z,100336.25
2022-09-18T10:15:59.467Z,100331.25
2022-09-18T10:21:06.064Z,100335.97
2022-09-18T10:26:17.474Z,100320.84
2022-09-18T10:31:20.068Z,100332.56
2022-09-18T10:36:28.805Z,100326.16
2022-09-18T10:41:37.114Z,100327.00
2022-09-18T10:46:41.630Z,100322.25
2022-09-18T10:51:43.510Z,100313.91
2022-09-18T10:56:46.506Z,100314.19
2022-09-18T11:01:48.284Z,100326.50
2022-09-18T11:06:50.326Z,100323.97
2022-09-18T11:12:16.575Z,100318.81
2022-09-18T11:17:25.572Z,100311.13
2022-09-18T11:22:41.019Z,100304.19
2022-09-18T11:27:52.500Z,100287.59
2022-09-18T11:32:58.893Z,100282.25
2022-09-18T11:38:04.322Z,100277.41
2022-09-18T11:43:15.522Z,100276.72
2022-09-18T11:48:26.454Z,100270.75
2022-09-18T11:53:30.510Z,100262.69
2022-09-18T11:58:41.953Z,100261.75
2022-09-18T12:03:49.437Z,100247.94
2022-09-18T12:08:55.068Z,100249.16
2022-09-18T12:14:08.253Z,100249.03
2022-09-18T12:19:14.441Z,100251.81
2022-09-18T12:24:17.193Z,100245.16
2022-09-18T12:29:35.109Z,100274.91
2022-09-18T12:34:43.643Z,100274.22
2022-09-18T12:40:02.765Z,100257.75
2022-09-18T12:45:34.958Z,100242.78
2022-09-18T12:50:52.071Z,100239.16
2022-09-18T12:56:17.853Z,100244.63
2022-09-18T13:01:30.612Z,100240.06
2022-09-18T13:06:41.228Z,100231.44
2022-09-18T13:11:46.611Z,100255.50
2022-09-18T13:16:52.394Z,100294.81
2022-09-18T13:21:57.004Z,100269.84
2022-09-18T13:26:59.786Z,100255.25
2022-09-18T13:32:03.010Z,100280.44
2022-09-18T13:37:06.685Z,100286.63
2022-09-18T13:42:08.706Z,100276.50
2022-09-18T13:47:13.943Z,100283.16
2022-09-18T13:52:40.917Z,100266.28
2022-09-18T13:57:44.195Z,100260.97
2022-09-18T14:02:48.069Z,100261.66
2022-09-18T14:08:13.430Z,100247.06
2022-09-18T14:13:37.718Z,100257.59
2022-09-18T14:18:56.670Z,100256.75
2022-09-18T14:24:36.687Z,100256.59
2022-09-18T14:29:39.868Z,100262.44
2022-09-18T14:34:44.069Z,100252.09
2022-09-18T14:39:47.135Z,100244.19
2022-09-18T14:44:51.975Z,100247.50
2022-09-18T14:49:55.297Z,100244.88
2022-09-18T14:54:58.960Z,100245.25
2022-09-18T15:00:02.168Z,100248.38
2022-09-18T15:05:11.653Z,100244.97
2022-09-18T15:10:15.089Z,100250.09
2022-09-18T15:15:30.401Z,100241.72
2022-09-18T15:20:34.204Z,100248.81
2022-09-18T15:25:40.384Z,100230.56
2022-09-18T15:30:43.217Z,100219.00
2022-09-18T15:35:51.474Z,100216.56
2022-09-18T15:40:53.726Z,100213.28
2022-09-18T15:46:02.290Z,100204.28
2022-09-18T15:51:13.530Z,100214.72
2022-09-18T15:56:20.687Z,100206.19
2022-09-18T16:01:26.180Z,100215.56
2022-09-18T16:06:32.270Z,100218.31
2022-09-18T16:11:43.324Z,100224.84
2022-09-18T16:16:45.066Z,100220.09
2022-09-18T16:21:48.385Z,100224.16
2022-09-18T16:26:50.071Z,100222.03
2022-09-18T16:31:52.692Z,100213.53
2022-09-18T16:36:57.118Z,100212.97
2022-09-18T16:42:00.086Z,100212.22
2022-09-18T16:47:05.754Z,100225.59
2022-09-18T16:52:10.301Z,100219.66
2022-09-18T16:57:16.156Z,100219.16
2022-09-18T17:02:24.354Z,100219.34
2022-09-18T17:07:29.969Z,100211.63
2022-09-18T17:12:31.791Z,100224.19
2022-09-18T17:17:33.500Z,100219.97
2022-09-18T17:22:36.523Z,100230.75
2022-09-18T17:27:41.801Z,100220.22
2022-09-18T17:32:47.350Z,100221.28
2022-09-18T17:37:50.445Z,100220.44
2022-09-18T17:42:52.679Z,100221.31
2022-09-18T17:47:54.451Z,100235.38
2022-09-18T17:52:58.267Z,100237.03
2022-09-18T17:58:00.283Z,100243.13
2022-09-18T18:03:02.413Z,100232.41
2022-09-18T18:08:06.354Z,100236.03
2022-09-18T18:13:08.895Z,100247.50
2022-09-18T18:18:10.708Z,100243.88
2022-09-18T18:23:14.458Z,100244.66
2022-09-18T18:28:16.928Z,100251.78
2022-09-18T18:33:19.558Z,100255.47
2022-09-18T18:38:23.295Z,100248.50
2022-09-18T18:43:25.363Z,100267.97
2022-09-18T18:48:27.444Z,100262.75
2022-09-18T18:53:31.452Z,100250.56
2022-09-18T18:58:34.331Z,100265.66
2022-09-18T19:03:39.959Z,100269.34
2022-09-18T19:08:44.924Z,100261.44
2022-09-18T19:13:50.447Z,100268.53
2022-09-18T19:18:53.680Z,100265.91
2022-09-18T19:23:57.661Z,100272.03
2022-09-18T19:29:01.385Z,100264.19
2022-09-18T19:34:05.846Z,100265.16
2022-09-18T19:39:12.469Z,100275.75
2022-09-18T19:44:22.470Z,100268.78
2022-09-18T19:49:30.511Z,100274.16
2022-09-18T19:54:34.407Z,100273.31
2022-09-18T19:59:36.245Z,100263.59
2022-09-18T20:04:40.939Z,100278.63
2022-09-18T20:09:44.708Z,100272.69
2022-09-18T20:14:46.314Z,100269.16
2022-09-18T20:19:48.541Z,100263.06
2022-09-18T20:24:53.250Z,100256.94
2022-09-18T20:29:55.127Z,100265.72
2022-09-18T20:34:57.315Z,100271.94
2022-09-18T20:40:00.927Z,100272.97
2022-09-18T20:45:02.602Z,100265.84
2022-09-18T20:50:05.717Z,100262.25
2022-09-18T20:55:11.281Z,100259.63
2022-09-18T21:00:14.930Z,100269.31
2022-09-18T21:05:17.069Z,100271.19
2022-09-18T21:10:20.413Z,100271.22
2022-09-18T21:15:22.112Z,100271.16
2022-09-18T21:20:24.052Z,100266.69
2022-09-18T21:25:29.926Z,100264.00
2022-09-18T21:30:31.711Z,100267.44
2022-09-18T21:35:33.871Z,100272.72
2022-09-18T21:40:37.159Z,100272.72
2022-09-18T21:45:38.811Z,100272.59
2022-09-18T21:50:40.807Z,100267.31
2022-09-18T21:55:44.476Z,100270.94
2022-09-18T22:00:46.897Z,100268.34
2022-09-18T22:05:48.878Z,100277.97
2022-09-18T22:10:51.797Z,100276.09
2022-09-18T22:15:53.846Z,100277.78
2022-09-18T22:20:56.034Z,100276.84
2022-09-18T22:26:03.766Z,100281.19
2022-09-18T22:31:05.897Z,100282.94
2022-09-18T22:36:08.305Z,100284.78
2022-09-18T22:41:11.907Z,100279.50
2022-09-18T22:46:14.967Z,100277.69
2022-09-18T22:51:18.662Z,100284.63
2022-09-18T22:56:22.622Z,100282.84
2022-09-18T23:01:28.052Z,100289.00
2022-09-18T23:06:32.831Z,100286.38
2022-09-18T23:11:36.354Z,100296.09
2022-09-18T23:16:38.401Z,100299.53
2022-09-18T23:21:40.583Z,100291.75
2022-09-18T23:26:45.418Z,100295.34
2022-09-18T23:31:49.554Z,100302.25
2022-09-18T23:36:54.561Z,100299.69
2022-09-18T23:41:59.099Z,100300.66
2022-09-18T23:47:01.493Z,100304.13
2022-09-18T23:52:03.584Z,100302.34
2022-09-18T23:57:06.986Z,100312.00
